sensor_id;sensor_type;location;lat;lon;timestamp;P1;durP1;ratioP1;P2;durP2;ratioP2
52918;SDS011;38793;52.690;6.812;2024-03-29T00:00:36;4.18;;;0.52;;
52918;SDS011;38793;52.690;6.812;2024-03-29T00:03:03;2.15;;;0.30;;
52918;SDS011;38793;52.690;6.812;2024-03-29T00:07:54;2.90;;;0.50;;
52918;SDS011;38793;52.690;6.812;2024-03-29T00:10:20;2.20;;;0.43;;
52918;SDS011;38793;52.690;6.812;2024-03-29T00:12:45;3.00;;;0.40;;
52918;SDS011;38793;52.690;6.812;2024-03-29T00:15:11;4.17;;;0.40;;
52918;SDS011;38793;52.690;6.812;2024-03-29T00:17:37;5.10;;;0.33;;
52918;SDS011;38793;52.690;6.812;2024-03-29T00:20:02;4.57;;;0.60;;
52918;SDS011;38793;52.690;6.812;2024-03-29T00:24:54;3.10;;;0.68;;
52918;SDS011;38793;52.690;6.812;2024-03-29T00:27:20;6.80;;;1.17;;
52918;SDS011;38793;52.690;6.812;2024-03-29T00:29:50;4.38;;;1.13;;
52918;SDS011;38793;52.690;6.812;2024-03-29T00:32:18;3.20;;;0.30;;
52918;SDS011;38793;52.690;6.812;2024-03-29T00:34:44;4.50;;;0.60;;
52918;SDS011;38793;52.690;6.812;2024-03-29T00:37:10;3.67;;;0.65;;
52918;SDS011;38793;52.690;6.812;2024-03-29T00:39:37;4.75;;;0.30;;
52918;SDS011;38793;52.690;6.812;2024-03-29T00:42:03;5.03;;;0.75;;
52918;SDS011;38793;52.690;6.812;2024-03-29T00:44:31;1.88;;;0.35;;
52918;SDS011;38793;52.690;6.812;2024-03-29T00:46:57;2.35;;;0.22;;
52918;SDS011;38793;52.690;6.812;2024-03-29T00:49:23;6.47;;;0.80;;
52918;SDS011;38793;52.690;6.812;2024-03-29T00:51:48;4.10;;;0.70;;
52918;SDS011;38793;52.690;6.812;2024-03-29T00:54:14;2.80;;;0.30;;
52918;SDS011;38793;52.690;6.812;2024-03-29T00:56:40;2.90;;;0.40;;
52918;SDS011;38793;52.690;6.812;2024-03-29T00:59:05;4.40;;;0.73;;
52918;SDS011;38793;52.690;6.812;2024-03-29T01:01:31;2.00;;;0.47;;
52918;SDS011;38793;52.690;6.812;2024-03-29T01:03:57;2.92;;;0.30;;
52918;SDS011;38793;52.690;6.812;2024-03-29T01:06:23;3.83;;;0.20;;
52918;SDS011;38793;52.690;6.812;2024-03-29T01:08:48;6.97;;;0.63;;
52918;SDS011;38793;52.690;6.812;2024-03-29T01:11:14;3.28;;;0.35;;
52918;SDS011;38793;52.690;6.812;2024-03-29T01:13:40;1.98;;;0.77;;
52918;SDS011;38793;52.690;6.812;2024-03-29T01:16:06;6.38;;;0.85;;
52918;SDS011;38793;52.690;6.812;2024-03-29T01:18:32;1.48;;;0.50;;
52918;SDS011;38793;52.690;6.812;2024-03-29T01:23:24;4.85;;;0.63;;
52918;SDS011;38793;52.690;6.812;2024-03-29T01:25:49;3.47;;;0.40;;
52918;SDS011;38793;52.690;6.812;2024-03-29T01:28:15;5.10;;;0.40;;
52918;SDS011;38793;52.690;6.812;2024-03-29T01:30:41;4.95;;;0.57;;
52918;SDS011;38793;52.690;6.812;2024-03-29T01:33:06;3.80;;;0.40;;
52918;SDS011;38793;52.690;6.812;2024-03-29T01:35:32;2.27;;;0.20;;
52918;SDS011;38793;52.690;6.812;2024-03-29T01:37:57;3.27;;;0.40;;
52918;SDS011;38793;52.690;6.812;2024-03-29T01:40:23;2.17;;;0.50;;
52918;SDS011;38793;52.690;6.812;2024-03-29T01:42:52;3.17;;;0.40;;
52918;SDS011;38793;52.690;6.812;2024-03-29T01:45:18;2.08;;;0.80;;
52918;SDS011;38793;52.690;6.812;2024-03-29T01:47:44;4.23;;;0.87;;
52918;SDS011;38793;52.690;6.812;2024-03-29T01:50:09;10.88;;;0.80;;
52918;SDS011;38793;52.690;6.812;2024-03-29T01:52:35;4.95;;;0.85;;
52918;SDS011;38793;52.690;6.812;2024-03-29T01:55:01;3.08;;;0.47;;
52918;SDS011;38793;52.690;6.812;2024-03-29T01:57:26;1.47;;;0.53;;
52918;SDS011;38793;52.690;6.812;2024-03-29T01:59:52;6.78;;;0.30;;
52918;SDS011;38793;52.690;6.812;2024-03-29T02:02:18;4.33;;;0.57;;
52918;SDS011;38793;52.690;6.812;2024-03-29T02:04:44;3.75;;;0.40;;
52918;SDS011;38793;52.690;6.812;2024-03-29T02:07:10;1.40;;;0.40;;
52918;SDS011;38793;52.690;6.812;2024-03-29T02:09:36;5.38;;;0.63;;
52918;SDS011;38793;52.690;6.812;2024-03-29T02:12:02;3.47;;;0.57;;
52918;SDS011;38793;52.690;6.812;2024-03-29T02:14:28;3.92;;;0.70;;
52918;SDS011;38793;52.690;6.812;2024-03-29T02:16:53;3.03;;;0.57;;
52918;SDS011;38793;52.690;6.812;2024-03-29T02:19:19;4.05;;;0.63;;
52918;SDS011;38793;52.690;6.812;2024-03-29T02:21:45;2.27;;;0.50;;
52918;SDS011;38793;52.690;6.812;2024-03-29T02:24:15;7.57;;;0.93;;
52918;SDS011;38793;52.690;6.812;2024-03-29T02:26:42;1.95;;;0.60;;
52918;SDS011;38793;52.690;6.812;2024-03-29T02:29:10;4.15;;;0.47;;
52918;SDS011;38793;52.690;6.812;2024-03-29T02:31:36;2.78;;;0.32;;
52918;SDS011;38793;52.690;6.812;2024-03-29T02:34:01;2.67;;;0.57;;
52918;SDS011;38793;52.690;6.812;2024-03-29T02:36:27;2.13;;;0.40;;
52918;SDS011;38793;52.690;6.812;2024-03-29T02:38:52;0.80;;;0.30;;
52918;SDS011;38793;52.690;6.812;2024-03-29T02:41:18;1.53;;;0.30;;
52918;SDS011;38793;52.690;6.812;2024-03-29T02:43:44;2.17;;;0.63;;
52918;SDS011;38793;52.690;6.812;2024-03-29T02:46:09;4.93;;;0.40;;
52918;SDS011;38793;52.690;6.812;2024-03-29T02:48:35;4.00;;;0.70;;
52918;SDS011;38793;52.690;6.812;2024-03-29T02:51:00;1.53;;;0.30;;
52918;SDS011;38793;52.690;6.812;2024-03-29T02:53:26;3.10;;;0.30;;
52918;SDS011;38793;52.690;6.812;2024-03-29T02:55:52;6.05;;;0.45;;
52918;SDS011;38793;52.690;6.812;2024-03-29T02:58:18;3.40;;;0.27;;
52918;SDS011;38793;52.690;6.812;2024-03-29T03:00:43;4.40;;;0.40;;
52918;SDS011;38793;52.690;6.812;2024-03-29T03:03:09;2.57;;;0.40;;
52918;SDS011;38793;52.690;6.812;2024-03-29T03:05:34;7.97;;;0.97;;
52918;SDS011;38793;52.690;6.812;2024-03-29T03:08:00;3.53;;;0.43;;
52918;SDS011;38793;52.690;6.812;2024-03-29T03:10:45;2.95;;;0.50;;
52918;SDS011;38793;52.690;6.812;2024-03-29T03:13:27;3.70;;;0.30;;
52918;SDS011;38793;52.690;6.812;2024-03-29T03:15:53;2.97;;;0.22;;
52918;SDS011;38793;52.690;6.812;2024-03-29T03:18:19;4.95;;;0.30;;
52918;SDS011;38793;52.690;6.812;2024-03-29T03:20:54;6.07;;;0.40;;
52918;SDS011;38793;52.690;6.812;2024-03-29T03:23:20;4.03;;;0.38;;
52918;SDS011;38793;52.690;6.812;2024-03-29T03:25:52;4.45;;;0.50;;
52918;SDS011;38793;52.690;6.812;2024-03-29T03:28:21;2.10;;;0.40;;
52918;SDS011;38793;52.690;6.812;2024-03-29T03:30:48;5.10;;;0.40;;
52918;SDS011;38793;52.690;6.812;2024-03-29T03:33:14;3.55;;;0.20;;
52918;SDS011;38793;52.690;6.812;2024-03-29T03:35:41;3.35;;;0.38;;
52918;SDS011;38793;52.690;6.812;2024-03-29T03:38:07;2.75;;;0.40;;
52918;SDS011;38793;52.690;6.812;2024-03-29T03:40:33;4.07;;;0.30;;
52918;SDS011;38793;52.690;6.812;2024-03-29T03:42:59;2.63;;;0.30;;
52918;SDS011;38793;52.690;6.812;2024-03-29T03:45:25;2.42;;;0.35;;
52918;SDS011;38793;52.690;6.812;2024-03-29T03:47:51;7.10;;;0.70;;
52918;SDS011;38793;52.690;6.812;2024-03-29T03:50:16;9.50;;;0.60;;
52918;SDS011;38793;52.690;6.812;2024-03-29T03:52:42;4.60;;;0.50;;
52918;SDS011;38793;52.690;6.812;2024-03-29T03:55:07;5.23;;;0.67;;
52918;SDS011;38793;52.690;6.812;2024-03-29T03:57:33;10.27;;;0.77;;
52918;SDS011;38793;52.690;6.812;2024-03-29T03:59:59;5.53;;;0.40;;
52918;SDS011;38793;52.690;6.812;2024-03-29T04:02:25;5.40;;;0.50;;
52918;SDS011;38793;52.690;6.812;2024-03-29T04:04:50;5.00;;;0.67;;
52918;SDS011;38793;52.690;6.812;2024-03-29T04:07:16;2.50;;;0.30;;
52918;SDS011;38793;52.690;6.812;2024-03-29T04:09:41;3.10;;;0.63;;
52918;SDS011;38793;52.690;6.812;2024-03-29T04:12:07;1.67;;;0.40;;
52918;SDS011;38793;52.690;6.812;2024-03-29T04:14:33;4.73;;;0.57;;
52918;SDS011;38793;52.690;6.812;2024-03-29T04:16:58;7.33;;;0.90;;
52918;SDS011;38793;52.690;6.812;2024-03-29T04:19:24;2.93;;;0.50;;
52918;SDS011;38793;52.690;6.812;2024-03-29T04:21:49;1.53;;;0.30;;
52918;SDS011;38793;52.690;6.812;2024-03-29T04:24:17;2.83;;;0.50;;
52918;SDS011;38793;52.690;6.812;2024-03-29T04:26:42;5.00;;;1.23;;
52918;SDS011;38793;52.690;6.812;2024-03-29T04:29:09;2.63;;;0.40;;
52918;SDS011;38793;52.690;6.812;2024-03-29T04:31:35;10.25;;;1.00;;
52918;SDS011;38793;52.690;6.812;2024-03-29T04:34:01;1.80;;;0.50;;
52918;SDS011;38793;52.690;6.812;2024-03-29T04:36:26;4.53;;;0.60;;
52918;SDS011;38793;52.690;6.812;2024-03-29T04:38:52;2.73;;;0.73;;
52918;SDS011;38793;52.690;6.812;2024-03-29T04:41:18;3.83;;;0.47;;
52918;SDS011;38793;52.690;6.812;2024-03-29T04:43:44;2.72;;;0.32;;
52918;SDS011;38793;52.690;6.812;2024-03-29T04:46:10;3.63;;;0.50;;
52918;SDS011;38793;52.690;6.812;2024-03-29T04:48:37;2.13;;;0.47;;
52918;SDS011;38793;52.690;6.812;2024-03-29T04:53:30;4.20;;;0.57;;
52918;SDS011;38793;52.690;6.812;2024-03-29T04:55:58;2.87;;;0.30;;
52918;SDS011;38793;52.690;6.812;2024-03-29T04:58:24;2.72;;;0.60;;
52918;SDS011;38793;52.690;6.812;2024-03-29T05:00:50;2.78;;;0.60;;
52918;SDS011;38793;52.690;6.812;2024-03-29T05:05:43;3.70;;;0.50;;
52918;SDS011;38793;52.690;6.812;2024-03-29T05:10:35;2.05;;;0.30;;
52918;SDS011;38793;52.690;6.812;2024-03-29T05:13:01;5.95;;;0.63;;
52918;SDS011;38793;52.690;6.812;2024-03-29T05:15:27;2.78;;;0.55;;
52918;SDS011;38793;52.690;6.812;2024-03-29T05:17:52;2.67;;;0.25;;
52918;SDS011;38793;52.690;6.812;2024-03-29T05:20:18;3.90;;;0.47;;
52918;SDS011;38793;52.690;6.812;2024-03-29T05:22:44;1.92;;;0.40;;
52918;SDS011;38793;52.690;6.812;2024-03-29T05:25:10;1.80;;;0.43;;
52918;SDS011;38793;52.690;6.812;2024-03-29T05:27:36;5.28;;;0.20;;
52918;SDS011;38793;52.690;6.812;2024-03-29T05:30:04;2.67;;;0.30;;
52918;SDS011;38793;52.690;6.812;2024-03-29T05:32:30;2.10;;;0.28;;
52918;SDS011;38793;52.690;6.812;2024-03-29T05:34:56;2.67;;;0.30;;
52918;SDS011;38793;52.690;6.812;2024-03-29T05:37:22;1.53;;;0.30;;
52918;SDS011;38793;52.690;6.812;2024-03-29T05:39:51;2.00;;;0.40;;
52918;SDS011;38793;52.690;6.812;2024-03-29T05:42:25;2.72;;;0.32;;
52918;SDS011;38793;52.690;6.812;2024-03-29T05:44:51;2.78;;;0.30;;
52918;SDS011;38793;52.690;6.812;2024-03-29T05:47:17;5.10;;;0.30;;
52918;SDS011;38793;52.690;6.812;2024-03-29T05:49:42;1.75;;;0.20;;
52918;SDS011;38793;52.690;6.812;2024-03-29T05:52:08;5.03;;;0.20;;
52918;SDS011;38793;52.690;6.812;2024-03-29T05:54:33;1.23;;;0.60;;
52918;SDS011;38793;52.690;6.812;2024-03-29T05:56:59;0.90;;;0.10;;
52918;SDS011;38793;52.690;6.812;2024-03-29T05:59:24;1.17;;;0.27;;
52918;SDS011;38793;52.690;6.812;2024-03-29T06:01:50;2.17;;;0.30;;
52918;SDS011;38793;52.690;6.812;2024-03-29T06:04:16;2.03;;;0.50;;
52918;SDS011;38793;52.690;6.812;2024-03-29T06:06:44;1.13;;;0.20;;
52918;SDS011;38793;52.690;6.812;2024-03-29T06:09:10;2.35;;;0.30;;
52918;SDS011;38793;52.690;6.812;2024-03-29T06:11:35;0.70;;;0.20;;
52918;SDS011;38793;52.690;6.812;2024-03-29T06:14:01;3.00;;;0.40;;
52918;SDS011;38793;52.690;6.812;2024-03-29T06:16:33;4.15;;;0.35;;
52918;SDS011;38793;52.690;6.812;2024-03-29T06:19:17;0.55;;;0.20;;
52918;SDS011;38793;52.690;6.812;2024-03-29T06:21:42;2.27;;;0.20;;
52918;SDS011;38793;52.690;6.812;2024-03-29T06:24:09;0.88;;;0.22;;
52918;SDS011;38793;52.690;6.812;2024-03-29T06:26:39;1.65;;;0.40;;
52918;SDS011;38793;52.690;6.812;2024-03-29T06:29:05;2.40;;;0.30;;
52918;SDS011;38793;52.690;6.812;2024-03-29T06:31:30;1.43;;;0.30;;
52918;SDS011;38793;52.690;6.812;2024-03-29T06:33:59;2.85;;;0.40;;
52918;SDS011;38793;52.690;6.812;2024-03-29T06:36:25;2.33;;;0.30;;
52918;SDS011;38793;52.690;6.812;2024-03-29T06:38:52;2.90;;;0.75;;
52918;SDS011;38793;52.690;6.812;2024-03-29T06:41:18;3.78;;;0.63;;
52918;SDS011;38793;52.690;6.812;2024-03-29T06:43:44;1.23;;;0.20;;
52918;SDS011;38793;52.690;6.812;2024-03-29T06:46:10;2.20;;;0.37;;
52918;SDS011;38793;52.690;6.812;2024-03-29T06:51:02;2.50;;;0.32;;
52918;SDS011;38793;52.690;6.812;2024-03-29T06:53:28;0.98;;;0.20;;
52918;SDS011;38793;52.690;6.812;2024-03-29T06:55:59;1.45;;;0.38;;
52918;SDS011;38793;52.690;6.812;2024-03-29T06:58:26;1.92;;;0.30;;
52918;SDS011;38793;52.690;6.812;2024-03-29T07:00:51;2.93;;;0.40;;
52918;SDS011;38793;52.690;6.812;2024-03-29T07:03:17;1.75;;;0.30;;
52918;SDS011;38793;52.690;6.812;2024-03-29T07:08:12;3.63;;;0.57;;
52918;SDS011;38793;52.690;6.812;2024-03-29T07:10:38;4.05;;;0.52;;
52918;SDS011;38793;52.690;6.812;2024-03-29T07:13:04;3.85;;;0.63;;
52918;SDS011;38793;52.690;6.812;2024-03-29T07:15:31;3.97;;;0.50;;
52918;SDS011;38793;52.690;6.812;2024-03-29T07:17:57;3.17;;;0.43;;
52918;SDS011;38793;52.690;6.812;2024-03-29T07:22:50;4.38;;;0.85;;
52918;SDS011;38793;52.690;6.812;2024-03-29T07:25:16;1.40;;;0.47;;
52918;SDS011;38793;52.690;6.812;2024-03-29T07:27:41;5.50;;;0.77;;
52918;SDS011;38793;52.690;6.812;2024-03-29T07:30:07;4.03;;;1.40;;
52918;SDS011;38793;52.690;6.812;2024-03-29T07:32:33;4.93;;;0.80;;
52918;SDS011;38793;52.690;6.812;2024-03-29T07:34:59;3.97;;;0.50;;
52918;SDS011;38793;52.690;6.812;2024-03-29T07:37:25;2.47;;;0.65;;
52918;SDS011;38793;52.690;6.812;2024-03-29T07:39:50;3.43;;;0.93;;
52918;SDS011;38793;52.690;6.812;2024-03-29T07:42:16;1.67;;;0.57;;
52918;SDS011;38793;52.690;6.812;2024-03-29T07:44:42;7.70;;;0.70;;
52918;SDS011;38793;52.690;6.812;2024-03-29T07:47:08;2.22;;;0.70;;
52918;SDS011;38793;52.690;6.812;2024-03-29T07:49:34;4.17;;;0.70;;
52918;SDS011;38793;52.690;6.812;2024-03-29T07:54:30;3.50;;;0.65;;
52918;SDS011;38793;52.690;6.812;2024-03-29T07:56:59;4.25;;;1.52;;
52918;SDS011;38793;52.690;6.812;2024-03-29T07:59:25;1.90;;;0.73;;
52918;SDS011;38793;52.690;6.812;2024-03-29T08:01:51;8.17;;;1.63;;
52918;SDS011;38793;52.690;6.812;2024-03-29T08:06:43;2.90;;;0.70;;
52918;SDS011;38793;52.690;6.812;2024-03-29T08:09:08;3.13;;;0.63;;
52918;SDS011;38793;52.690;6.812;2024-03-29T08:14:01;3.78;;;1.00;;
52918;SDS011;38793;52.690;6.812;2024-03-29T08:16:27;3.27;;;0.80;;
52918;SDS011;38793;52.690;6.812;2024-03-29T08:18:52;5.57;;;1.27;;
52918;SDS011;38793;52.690;6.812;2024-03-29T08:21:18;1.00;;;0.70;;
52918;SDS011;38793;52.690;6.812;2024-03-29T08:23:44;4.83;;;1.00;;
52918;SDS011;38793;52.690;6.812;2024-03-29T08:26:11;4.85;;;1.10;;
52918;SDS011;38793;52.690;6.812;2024-03-29T08:28:37;2.47;;;1.10;;
52918;SDS011;38793;52.690;6.812;2024-03-29T08:31:04;1.80;;;0.73;;
52918;SDS011;38793;52.690;6.812;2024-03-29T08:33:31;2.10;;;0.85;;
52918;SDS011;38793;52.690;6.812;2024-03-29T08:35:57;3.15;;;0.75;;
52918;SDS011;38793;52.690;6.812;2024-03-29T08:38:23;4.65;;;0.98;;
52918;SDS011;38793;52.690;6.812;2024-03-29T08:40:48;1.13;;;1.00;;
52918;SDS011;38793;52.690;6.812;2024-03-29T08:43:15;4.90;;;0.55;;
52918;SDS011;38793;52.690;6.812;2024-03-29T08:45:42;1.55;;;0.57;;
52918;SDS011;38793;52.690;6.812;2024-03-29T08:48:11;5.25;;;0.60;;
52918;SDS011;38793;52.690;6.812;2024-03-29T08:50:37;4.00;;;0.77;;
52918;SDS011;38793;52.690;6.812;2024-03-29T08:53:03;4.67;;;0.40;;
52918;SDS011;38793;52.690;6.812;2024-03-29T08:55:29;2.55;;;0.60;;
52918;SDS011;38793;52.690;6.812;2024-03-29T08:57:57;3.45;;;0.82;;
52918;SDS011;38793;52.690;6.812;2024-03-29T09:00:24;2.13;;;0.60;;
52918;SDS011;38793;52.690;6.812;2024-03-29T09:02:50;4.10;;;0.60;;
52918;SDS011;38793;52.690;6.812;2024-03-29T09:05:16;3.30;;;0.53;;
52918;SDS011;38793;52.690;6.812;2024-03-29T09:07:41;5.90;;;0.97;;
52918;SDS011;38793;52.690;6.812;2024-03-29T09:10:07;4.47;;;0.82;;
52918;SDS011;38793;52.690;6.812;2024-03-29T09:12:33;3.70;;;0.88;;
52918;SDS011;38793;52.690;6.812;2024-03-29T09:17:25;2.60;;;0.80;;
52918;SDS011;38793;52.690;6.812;2024-03-29T09:19:51;3.08;;;0.50;;
52918;SDS011;38793;52.690;6.812;2024-03-29T09:22:18;2.80;;;0.90;;
52918;SDS011;38793;52.690;6.812;2024-03-29T09:24:44;4.15;;;1.02;;
52918;SDS011;38793;52.690;6.812;2024-03-29T09:27:09;3.25;;;0.80;;
52918;SDS011;38793;52.690;6.812;2024-03-29T09:29:35;3.43;;;0.90;;
52918;SDS011;38793;52.690;6.812;2024-03-29T09:32:01;9.00;;;1.10;;
52918;SDS011;38793;52.690;6.812;2024-03-29T09:34:29;3.58;;;0.88;;
52918;SDS011;38793;52.690;6.812;2024-03-29T09:39:22;14.90;;;1.38;;
52918;SDS011;38793;52.690;6.812;2024-03-29T09:41:48;3.13;;;0.80;;
52918;SDS011;38793;52.690;6.812;2024-03-29T09:44:15;3.15;;;0.80;;
52918;SDS011;38793;52.690;6.812;2024-03-29T09:46:42;5.93;;;1.23;;
52918;SDS011;38793;52.690;6.812;2024-03-29T09:49:08;4.90;;;1.08;;
52918;SDS011;38793;52.690;6.812;2024-03-29T09:51:34;3.80;;;0.93;;
52918;SDS011;38793;52.690;6.812;2024-03-29T09:54:01;5.45;;;1.17;;
52918;SDS011;38793;52.690;6.812;2024-03-29T09:56:33;9.45;;;1.50;;
52918;SDS011;38793;52.690;6.812;2024-03-29T09:58:59;4.38;;;1.20;;
52918;SDS011;38793;52.690;6.812;2024-03-29T10:01:26;4.88;;;0.98;;
52918;SDS011;38793;52.690;6.812;2024-03-29T10:03:53;4.00;;;0.77;;
52918;SDS011;38793;52.690;6.812;2024-03-29T10:06:19;3.92;;;0.68;;
52918;SDS011;38793;52.690;6.812;2024-03-29T10:08:46;3.20;;;0.77;;
52918;SDS011;38793;52.690;6.812;2024-03-29T10:11:13;11.50;;;2.03;;
52918;SDS011;38793;52.690;6.812;2024-03-29T10:13:42;2.13;;;0.73;;
52918;SDS011;38793;52.690;6.812;2024-03-29T10:16:10;3.60;;;0.65;;
52918;SDS011;38793;52.690;6.812;2024-03-29T10:18:37;1.83;;;0.88;;
52918;SDS011;38793;52.690;6.812;2024-03-29T10:21:06;3.15;;;0.80;;
52918;SDS011;38793;52.690;6.812;2024-03-29T10:23:32;4.38;;;0.50;;
52918;SDS011;38793;52.690;6.812;2024-03-29T10:26:00;2.65;;;0.63;;
52918;SDS011;38793;52.690;6.812;2024-03-29T10:28:29;1.15;;;0.43;;
52918;SDS011;38793;52.690;6.812;2024-03-29T10:30:57;2.45;;;0.65;;
52918;SDS011;38793;52.690;6.812;2024-03-29T10:33:23;3.20;;;0.87;;
52918;SDS011;38793;52.690;6.812;2024-03-29T10:35:52;2.65;;;0.70;;
52918;SDS011;38793;52.690;6.812;2024-03-29T10:38:20;2.88;;;1.02;;
52918;SDS011;38793;52.690;6.812;2024-03-29T10:40:46;0.70;;;0.40;;
52918;SDS011;38793;52.690;6.812;2024-03-29T10:43:13;4.38;;;0.60;;
52918;SDS011;38793;52.690;6.812;2024-03-29T10:45:44;5.43;;;1.15;;
52918;SDS011;38793;52.690;6.812;2024-03-29T10:48:10;5.78;;;1.80;;
52918;SDS011;38793;52.690;6.812;2024-03-29T10:50:35;2.72;;;0.88;;
52918;SDS011;38793;52.690;6.812;2024-03-29T10:55:29;5.97;;;1.25;;
52918;SDS011;38793;52.690;6.812;2024-03-29T10:57:57;5.00;;;1.80;;
52918;SDS011;38793;52.690;6.812;2024-03-29T11:00:24;5.55;;;1.90;;
52918;SDS011;38793;52.690;6.812;2024-03-29T11:03:05;4.88;;;1.35;;
52918;SDS011;38793;52.690;6.812;2024-03-29T11:05:38;2.20;;;1.10;;
52918;SDS011;38793;52.690;6.812;2024-03-29T11:08:10;2.47;;;1.33;;
52918;SDS011;38793;52.690;6.812;2024-03-29T11:15:52;3.35;;;1.13;;
52918;SDS011;38793;52.690;6.812;2024-03-29T11:18:18;3.00;;;1.25;;
52918;SDS011;38793;52.690;6.812;2024-03-29T11:23:16;2.30;;;1.05;;
52918;SDS011;38793;52.690;6.812;2024-03-29T11:25:54;3.00;;;0.82;;
52918;SDS011;38793;52.690;6.812;2024-03-29T11:28:24;1.33;;;1.10;;
52918;SDS011;38793;52.690;6.812;2024-03-29T11:30:51;1.48;;;0.50;;
52918;SDS011;38793;52.690;6.812;2024-03-29T11:33:28;3.17;;;1.15;;
52918;SDS011;38793;52.690;6.812;2024-03-29T11:35:56;2.65;;;0.70;;
52918;SDS011;38793;52.690;6.812;2024-03-29T11:38:30;5.32;;;0.80;;
52918;SDS011;38793;52.690;6.812;2024-03-29T11:41:06;3.50;;;0.90;;
52918;SDS011;38793;52.690;6.812;2024-03-29T11:43:36;1.75;;;0.90;;
52918;SDS011;38793;52.690;6.812;2024-03-29T11:46:04;2.00;;;0.93;;
52918;SDS011;38793;52.690;6.812;2024-03-29T11:48:34;4.15;;;1.10;;
52918;SDS011;38793;52.690;6.812;2024-03-29T11:51:01;1.38;;;0.98;;
52918;SDS011;38793;52.690;6.812;2024-03-29T11:53:28;2.70;;;1.35;;
52918;SDS011;38793;52.690;6.812;2024-03-29T11:55:55;2.17;;;1.25;;
52918;SDS011;38793;52.690;6.812;2024-03-29T11:58:24;1.52;;;1.15;;
52918;SDS011;38793;52.690;6.812;2024-03-29T12:00:51;4.10;;;1.50;;
52918;SDS011;38793;52.690;6.812;2024-03-29T12:03:19;3.75;;;1.10;;
52918;SDS011;38793;52.690;6.812;2024-03-29T12:05:47;1.45;;;1.00;;
52918;SDS011;38793;52.690;6.812;2024-03-29T12:08:14;1.33;;;1.00;;
52918;SDS011;38793;52.690;6.812;2024-03-29T12:10:40;1.98;;;1.38;;
52918;SDS011;38793;52.690;6.812;2024-03-29T12:13:06;1.63;;;1.25;;
52918;SDS011;38793;52.690;6.812;2024-03-29T12:17:59;5.10;;;1.20;;
52918;SDS011;38793;52.690;6.812;2024-03-29T12:20:30;2.22;;;1.10;;
52918;SDS011;38793;52.690;6.812;2024-03-29T12:23:00;1.52;;;1.30;;
52918;SDS011;38793;52.690;6.812;2024-03-29T12:25:30;2.13;;;1.48;;
52918;SDS011;38793;52.690;6.812;2024-03-29T12:27:57;1.77;;;1.55;;
52918;SDS011;38793;52.690;6.812;2024-03-29T12:30:24;4.50;;;1.73;;
52918;SDS011;38793;52.690;6.812;2024-03-29T12:35:51;2.75;;;1.85;;
52918;SDS011;38793;52.690;6.812;2024-03-29T12:38:19;1.70;;;1.50;;
52918;SDS011;38793;52.690;6.812;2024-03-29T12:40:46;1.70;;;1.40;;
52918;SDS011;38793;52.690;6.812;2024-03-29T12:43:18;2.50;;;1.02;;
52918;SDS011;38793;52.690;6.812;2024-03-29T12:45:45;1.95;;;0.98;;
52918;SDS011;38793;52.690;6.812;2024-03-29T12:48:15;2.20;;;1.52;;
52918;SDS011;38793;52.690;6.812;2024-03-29T12:50:42;2.05;;;1.35;;
52918;SDS011;38793;52.690;6.812;2024-03-29T12:53:10;3.55;;;1.30;;
52918;SDS011;38793;52.690;6.812;2024-03-29T12:55:37;3.17;;;1.30;;
52918;SDS011;38793;52.690;6.812;2024-03-29T12:58:10;1.83;;;1.08;;
52918;SDS011;38793;52.690;6.812;2024-03-29T13:00:37;2.50;;;1.10;;
52918;SDS011;38793;52.690;6.812;2024-03-29T13:03:03;2.58;;;1.00;;
52918;SDS011;38793;52.690;6.812;2024-03-29T13:05:30;3.90;;;1.30;;
52918;SDS011;38793;52.690;6.812;2024-03-29T13:08:15;2.10;;;1.70;;
52918;SDS011;38793;52.690;6.812;2024-03-29T13:10:42;2.60;;;0.70;;
52918;SDS011;38793;52.690;6.812;2024-03-29T13:15:34;2.90;;;1.10;;
52918;SDS011;38793;52.690;6.812;2024-03-29T13:18:04;2.60;;;1.52;;
52918;SDS011;38793;52.690;6.812;2024-03-29T13:20:31;3.45;;;1.20;;
52918;SDS011;38793;52.690;6.812;2024-03-29T13:22:59;4.55;;;1.23;;
52918;SDS011;38793;52.690;6.812;2024-03-29T13:25:25;5.38;;;1.52;;
52918;SDS011;38793;52.690;6.812;2024-03-29T13:27:51;3.30;;;0.70;;
52918;SDS011;38793;52.690;6.812;2024-03-29T13:30:19;1.13;;;0.30;;
52918;SDS011;38793;52.690;6.812;2024-03-29T13:32:46;1.83;;;0.50;;
52918;SDS011;38793;52.690;6.812;2024-03-29T13:35:11;2.25;;;0.40;;
52918;SDS011;38793;52.690;6.812;2024-03-29T13:37:38;3.38;;;0.40;;
52918;SDS011;38793;52.690;6.812;2024-03-29T13:40:07;1.13;;;0.40;;
52918;SDS011;38793;52.690;6.812;2024-03-29T13:42:33;0.90;;;0.50;;
52918;SDS011;38793;52.690;6.812;2024-03-29T13:45:00;2.88;;;0.30;;
52918;SDS011;38793;52.690;6.812;2024-03-29T13:47:25;0.95;;;0.47;;
52918;SDS011;38793;52.690;6.812;2024-03-29T13:49:51;1.17;;;0.45;;
52918;SDS011;38793;52.690;6.812;2024-03-29T13:52:18;3.78;;;0.40;;
52918;SDS011;38793;52.690;6.812;2024-03-29T13:54:45;0.90;;;0.40;;
52918;SDS011;38793;52.690;6.812;2024-03-29T13:57:12;5.07;;;0.60;;
52918;SDS011;38793;52.690;6.812;2024-03-29T13:59:41;0.57;;;0.30;;
52918;SDS011;38793;52.690;6.812;2024-03-29T14:02:11;0.60;;;0.40;;
52918;SDS011;38793;52.690;6.812;2024-03-29T14:04:38;0.73;;;0.47;;
52918;SDS011;38793;52.690;6.812;2024-03-29T14:07:04;2.60;;;0.65;;
52918;SDS011;38793;52.690;6.812;2024-03-29T14:09:34;4.47;;;0.50;;
52918;SDS011;38793;52.690;6.812;2024-03-29T14:14:25;4.22;;;1.15;;
52918;SDS011;38793;52.690;6.812;2024-03-29T14:16:51;1.02;;;0.40;;
52918;SDS011;38793;52.690;6.812;2024-03-29T14:19:16;0.90;;;0.47;;
52918;SDS011;38793;52.690;6.812;2024-03-29T14:21:42;2.83;;;0.28;;
52918;SDS011;38793;52.690;6.812;2024-03-29T14:24:08;0.65;;;0.40;;
52918;SDS011;38793;52.690;6.812;2024-03-29T14:26:33;1.48;;;0.30;;
52918;SDS011;38793;52.690;6.812;2024-03-29T14:28:59;0.50;;;0.30;;
52918;SDS011;38793;52.690;6.812;2024-03-29T14:31:24;6.43;;;0.70;;
52918;SDS011;38793;52.690;6.812;2024-03-29T14:33:50;2.53;;;0.50;;
52918;SDS011;38793;52.690;6.812;2024-03-29T14:36:15;0.70;;;0.30;;
52918;SDS011;38793;52.690;6.812;2024-03-29T14:38:43;0.80;;;0.52;;
52918;SDS011;38793;52.690;6.812;2024-03-29T14:41:09;0.50;;;0.30;;
52918;SDS011;38793;52.690;6.812;2024-03-29T14:43:35;1.50;;;0.60;;
52918;SDS011;38793;52.690;6.812;2024-03-29T14:46:01;0.63;;;0.40;;
52918;SDS011;38793;52.690;6.812;2024-03-29T14:48:27;0.70;;;0.40;;
52918;SDS011;38793;52.690;6.812;2024-03-29T14:50:52;3.20;;;0.50;;
52918;SDS011;38793;52.690;6.812;2024-03-29T14:53:21;0.90;;;0.35;;
52918;SDS011;38793;52.690;6.812;2024-03-29T14:55:47;4.68;;;0.60;;
52918;SDS011;38793;52.690;6.812;2024-03-29T14:58:12;0.87;;;0.30;;
52918;SDS011;38793;52.690;6.812;2024-03-29T15:00:38;3.00;;;0.40;;
52918;SDS011;38793;52.690;6.812;2024-03-29T15:03:03;2.30;;;0.30;;
52918;SDS011;38793;52.690;6.812;2024-03-29T15:05:29;0.47;;;0.28;;
52918;SDS011;38793;52.690;6.812;2024-03-29T15:07:55;0.38;;;0.22;;
52918;SDS011;38793;52.690;6.812;2024-03-29T15:10:20;2.63;;;0.32;;
52918;SDS011;38793;52.690;6.812;2024-03-29T15:12:48;0.52;;;0.20;;
52918;SDS011;38793;52.690;6.812;2024-03-29T15:15:14;1.17;;;0.50;;
52918;SDS011;38793;52.690;6.812;2024-03-29T15:17:40;3.42;;;0.60;;
52918;SDS011;38793;52.690;6.812;2024-03-29T15:20:06;1.13;;;0.30;;
52918;SDS011;38793;52.690;6.812;2024-03-29T15:22:34;0.60;;;0.30;;
52918;SDS011;38793;52.690;6.812;2024-03-29T15:25:03;0.88;;;0.40;;
52918;SDS011;38793;52.690;6.812;2024-03-29T15:27:29;3.45;;;0.47;;
52918;SDS011;38793;52.690;6.812;2024-03-29T15:30:16;2.78;;;0.40;;
52918;SDS011;38793;52.690;6.812;2024-03-29T15:32:42;0.55;;;0.22;;
52918;SDS011;38793;52.690;6.812;2024-03-29T15:35:08;1.55;;;0.30;;
52918;SDS011;38793;52.690;6.812;2024-03-29T15:37:34;2.67;;;0.25;;
52918;SDS011;38793;52.690;6.812;2024-03-29T15:40:00;2.00;;;0.22;;